createdAt,value
2022-12-06T00:01:35.460Z,1.77
2022-12-06T00:04:08.992Z,1.70
2022-12-06T00:06:45.141Z,2.00
2022-12-06T00:09:30.645Z,1.67
2022-12-06T00:11:58.616Z,1.73
2022-12-06T00:14:26.731Z,1.77
2022-12-06T00:16:54.353Z,1.60
2022-12-06T00:19:24.081Z,1.80
2022-12-06T00:21:51.899Z,1.37
2022-12-06T00:24:21.948Z,1.63
2022-12-06T00:26:50.895Z,1.43
2022-12-06T00:29:21.612Z,1.70
2022-12-06T00:31:49.889Z,2.10
2022-12-06T00:34:17.588Z,1.80
2022-12-06T00:36:44.875Z,1.63
2022-12-06T00:39:16.937Z,2.00
2022-12-06T00:41:45.275Z,1.83
2022-12-06T00:44:13.780Z,2.00
2022-12-06T00:46:41.012Z,1.50
2022-12-06T00:49:09.641Z,1.90
2022-12-06T00:51:38.117Z,1.70
2022-12-06T00:54:06.688Z,1.63
2022-12-06T00:56:36.506Z,1.50
2022-12-06T00:59:04.605Z,1.83
2022-12-06T01:01:33.901Z,2.13
2022-12-06T01:04:03.920Z,2.00
2022-12-06T01:06:33.411Z,1.73
2022-12-06T01:09:04.469Z,1.80
2022-12-06T01:11:31.702Z,1.67
2022-12-06T01:14:00.262Z,1.77
2022-12-06T01:16:29.857Z,1.90
2022-12-06T01:19:00.239Z,1.60
2022-12-06T01:21:29.065Z,1.57
2022-12-06T01:23:56.433Z,1.73
2022-12-06T01:26:33.926Z,1.77
2022-12-06T01:29:02.010Z,1.93
2022-12-06T01:31:35.816Z,1.93
2022-12-06T01:34:08.122Z,1.53
2022-12-06T01:36:39.418Z,1.93
2022-12-06T01:39:10.773Z,1.83
2022-12-06T01:41:39.247Z,1.87
2022-12-06T01:44:28.238Z,1.90
2022-12-06T01:46:55.520Z,1.60
2022-12-06T01:49:29.836Z,1.77
2022-12-06T01:52:03.242Z,1.97
2022-12-06T01:54:30.977Z,1.60
2022-12-06T01:56:59.114Z,1.93
2022-12-06T01:59:27.349Z,2.00
2022-12-06T02:01:54.995Z,1.50
2022-12-06T02:04:23.490Z,2.13
2022-12-06T02:06:53.477Z,2.13
2022-12-06T02:09:21.977Z,1.87
2022-12-06T02:11:49.062Z,2.00
2022-12-06T02:14:21.097Z,1.50
2022-12-06T02:17:17.844Z,1.90
2022-12-06T02:20:07.658Z,1.60
2022-12-06T02:23:12.028Z,1.87
2022-12-06T02:25:58.537Z,1.53
2022-12-06T02:28:38.099Z,1.93
2022-12-06T02:31:16.020Z,1.60
2022-12-06T02:33:50.961Z,1.73
2022-12-06T02:36:27.899Z,1.53
2022-12-06T02:38:59.883Z,1.57
2022-12-06T02:41:59.652Z,1.57
2022-12-06T02:44:32.148Z,1.57
2022-12-06T02:47:01.636Z,1.73
2022-12-06T02:49:33.768Z,1.80
2022-12-06T02:52:02.369Z,1.70
2022-12-06T02:54:31.620Z,1.47
2022-12-06T02:56:58.771Z,1.70
2022-12-06T02:59:25.857Z,1.60
2022-12-06T03:01:58.199Z,1.47
2022-12-06T03:05:14.379Z,1.83
2022-12-06T03:07:47.350Z,1.23
2022-12-06T03:10:32.809Z,1.80
2022-12-06T03:13:16.201Z,1.57
2022-12-06T03:15:59.169Z,1.60
2022-12-06T03:18:42.751Z,1.60
2022-12-06T03:21:17.718Z,1.87
2022-12-06T03:23:49.411Z,1.60
2022-12-06T03:26:24.365Z,1.83
2022-12-06T03:28:56.820Z,1.70
2022-12-06T03:31:25.445Z,1.97
2022-12-06T03:34:00.698Z,1.90
2022-12-06T03:36:30.621Z,2.10
2022-12-06T03:39:05.290Z,1.93
2022-12-06T03:41:43.714Z,2.03
2022-12-06T03:44:11.140Z,1.97
2022-12-06T03:46:44.566Z,1.93
2022-12-06T03:49:20.851Z,2.10
2022-12-06T03:51:51.157Z,2.23
2022-12-06T03:54:18.481Z,2.17
2022-12-06T03:56:45.806Z,2.03
2022-12-06T03:59:12.980Z,1.77
2022-12-06T04:01:40.477Z,2.10
2022-12-06T04:04:08.105Z,2.43
2022-12-06T04:06:35.285Z,2.00
2022-12-06T04:09:21.201Z,2.17
2022-12-06T04:11:48.395Z,2.37
2022-12-06T04:14:15.521Z,2.40
2022-12-06T04:17:01.430Z,2.00
2022-12-06T04:19:28.777Z,1.87
2022-12-06T04:22:14.855Z,2.23
2022-12-06T04:24:41.960Z,2.17
2022-12-06T04:27:28.027Z,2.43
2022-12-06T04:30:14.219Z,2.20
2022-12-06T04:33:00.077Z,2.27
2022-12-06T04:35:45.806Z,2.43
2022-12-06T04:38:32.037Z,2.13
2022-12-06T04:40:59.146Z,1.93
2022-12-06T04:43:44.635Z,1.83
2022-12-06T04:46:14.376Z,1.63
2022-12-06T04:48:42.230Z,1.93
2022-12-06T04:51:13.194Z,2.00
2022-12-06T04:53:40.651Z,2.20
2022-12-06T04:56:08.171Z,2.23
2022-12-06T04:58:35.588Z,2.23
2022-12-06T05:01:02.625Z,2.30
2022-12-06T05:03:29.992Z,1.90
2022-12-06T05:05:57.155Z,2.37
2022-12-06T05:08:24.476Z,2.20
2022-12-06T05:10:52.510Z,1.90
2022-12-06T05:13:21.405Z,2.30
2022-12-06T05:15:52.152Z,2.17
2022-12-06T05:18:20.272Z,2.07
2022-12-06T05:20:47.861Z,2.23
2022-12-06T05:23:15.196Z,2.30
2022-12-06T05:25:42.739Z,2.00
2022-12-06T05:28:10.595Z,2.30
2022-12-06T05:30:37.706Z,2.50
2022-12-06T05:33:04.850Z,2.27
2022-12-06T05:35:31.911Z,1.97
2022-12-06T05:37:59.119Z,2.23
2022-12-06T05:40:26.477Z,2.20
2022-12-06T05:42:53.875Z,2.17
2022-12-06T05:45:20.951Z,1.83
2022-12-06T05:47:48.187Z,2.30
2022-12-06T05:50:15.908Z,2.00
2022-12-06T05:52:43.257Z,2.40
2022-12-06T05:55:10.697Z,2.33
2022-12-06T05:57:41.218Z,2.20
2022-12-06T06:00:13.408Z,2.57
2022-12-06T06:02:40.553Z,2.37
2022-12-06T06:05:08.110Z,2.20
2022-12-06T06:07:35.220Z,2.43
2022-12-06T06:10:02.839Z,2.37
2022-12-06T06:12:30.086Z,2.53
2022-12-06T06:14:57.342Z,2.30
2022-12-06T06:17:24.587Z,2.33
2022-12-06T06:19:51.952Z,2.00
2022-12-06T06:22:23.351Z,2.30
2022-12-06T06:24:51.927Z,2.43
2022-12-06T06:27:18.971Z,2.37
2022-12-06T06:29:46.179Z,2.37
2022-12-06T06:32:13.944Z,2.10
2022-12-06T06:34:42.322Z,2.33
2022-12-06T06:37:09.523Z,2.17
2022-12-06T06:39:37.016Z,1.97
2022-12-06T06:42:05.050Z,2.33
2022-12-06T06:44:33.186Z,2.00
2022-12-06T06:47:00.308Z,2.20
2022-12-06T06:49:27.548Z,2.70
2022-12-06T06:51:54.619Z,2.17
2022-12-06T06:54:22.351Z,2.33
2022-12-06T06:56:49.845Z,2.40
2022-12-06T06:59:17.111Z,2.37
2022-12-06T07:01:44.281Z,2.10
2022-12-06T07:04:11.546Z,2.57
2022-12-06T07:06:38.673Z,2.40
2022-12-06T07:09:05.838Z,2.60
2022-12-06T07:11:33.029Z,2.53
2022-12-06T07:14:02.167Z,2.03
2022-12-06T07:16:30.871Z,2.53
2022-12-06T07:18:58.072Z,2.53
2022-12-06T07:21:25.105Z,2.50
2022-12-06T07:23:52.425Z,2.17
2022-12-06T07:26:22.332Z,2.43
2022-12-06T07:28:51.319Z,2.33
2022-12-06T07:31:20.875Z,2.77
2022-12-06T07:33:49.236Z,2.40
2022-12-06T07:36:16.306Z,2.50
2022-12-06T07:38:47.561Z,2.50
2022-12-06T07:41:33.715Z,2.20
2022-12-06T07:44:20.713Z,1.93
2022-12-06T07:46:48.674Z,2.20
2022-12-06T07:49:19.356Z,2.20
2022-12-06T07:51:47.404Z,2.23
2022-12-06T07:54:15.635Z,2.50
2022-12-06T07:56:43.826Z,2.63
2022-12-06T07:59:11.705Z,2.50
2022-12-06T08:01:39.549Z,1.83
2022-12-06T08:04:08.147Z,1.97
2022-12-06T08:06:36.010Z,2.37
2022-12-06T08:09:10.569Z,2.13
2022-12-06T08:11:38.101Z,1.90
2022-12-06T08:14:05.660Z,2.10
2022-12-06T08:16:34.546Z,2.27
2022-12-06T08:19:02.484Z,2.17
2022-12-06T08:21:29.974Z,1.90
2022-12-06T08:23:57.349Z,1.77
2022-12-06T08:26:25.214Z,1.67
2022-12-06T08:28:52.904Z,2.00
2022-12-06T08:31:23.846Z,1.90
2022-12-06T08:33:51.190Z,2.43
2022-12-06T08:36:21.257Z,2.17
2022-12-06T08:38:49.284Z,2.17
2022-12-06T08:41:35.472Z,2.00
2022-12-06T08:44:03.621Z,2.07
2022-12-06T08:46:32.675Z,2.10
2022-12-06T08:49:00.185Z,2.30
2022-12-06T08:51:27.764Z,2.03
2022-12-06T08:53:55.694Z,1.90
2022-12-06T08:56:23.542Z,1.90
2022-12-06T08:58:52.318Z,1.67
2022-12-06T09:01:22.829Z,2.07
2022-12-06T09:03:50.347Z,2.20
2022-12-06T09:06:18.974Z,2.30
2022-12-06T09:08:47.295Z,2.43
2022-12-06T09:11:15.734Z,2.53
2022-12-06T09:13:43.930Z,2.03
2022-12-06T09:16:17.216Z,1.93
2022-12-06T09:18:48.290Z,2.03
2022-12-06T09:21:25.883Z,2.17
2022-12-06T09:23:55.910Z,2.53
2022-12-06T09:26:24.162Z,2.43
2022-12-06T09:28:53.116Z,1.97
2022-12-06T09:31:20.635Z,2.33
2022-12-06T09:33:48.139Z,2.33
2022-12-06T09:36:24.008Z,2.50
2022-12-06T09:38:58.286Z,2.33
2022-12-06T09:41:53.003Z,2.37
2022-12-06T09:44:41.821Z,2.30
2022-12-06T09:47:11.799Z,1.97
2022-12-06T09:50:10.529Z,2.13
2022-12-06T09:52:37.562Z,2.50
2022-12-06T09:55:19.936Z,2.10
2022-12-06T09:58:09.443Z,2.40
2022-12-06T10:00:59.138Z,2.40
2022-12-06T10:03:58.064Z,2.60
2022-12-06T10:06:35.094Z,2.67
2022-12-06T10:09:32.578Z,3.07
2022-12-06T10:12:18.147Z,2.87
2022-12-06T10:15:13.191Z,2.97
2022-12-06T10:18:01.474Z,2.33
2022-12-06T10:21:09.628Z,2.67
2022-12-06T10:24:01.621Z,2.07
2022-12-06T10:27:01.832Z,2.20
2022-12-06T10:29:32.008Z,2.07
2022-12-06T10:32:04.168Z,2.03
2022-12-06T10:36:38.777Z,2.23
2022-12-06T10:37:55.837Z,2.03
2022-12-06T10:40:25.479Z,1.57
2022-12-06T10:43:37.316Z,2.07
2022-12-06T10:46:33.536Z,1.93
2022-12-06T10:49:07.076Z,1.90
2022-12-06T10:51:54.238Z,1.80
2022-12-06T10:54:31.268Z,2.03
2022-12-06T10:57:05.455Z,2.00
2022-12-06T10:59:43.038Z,2.20
2022-12-06T11:02:38.171Z,1.93
2022-12-06T11:05:16.835Z,2.37
2022-12-06T11:07:48.487Z,1.83
2022-12-06T11:10:24.677Z,2.27
2022-12-06T11:12:59.928Z,1.87
2022-12-06T11:15:38.740Z,2.40
2022-12-06T11:18:13.190Z,1.90
2022-12-06T11:20:58.964Z,2.27
2022-12-06T11:23:30.677Z,2.03
2022-12-06T11:26:39.355Z,2.07
2022-12-06T11:29:13.173Z,2.13
2022-12-06T11:31:47.982Z,2.20
2022-12-06T11:34:38.440Z,2.03
2022-12-06T11:37:07.328Z,2.13
2022-12-06T11:39:35.157Z,2.30
2022-12-06T11:42:04.707Z,2.20
2022-12-06T11:44:58.037Z,2.10
2022-12-06T11:47:25.512Z,1.87
2022-12-06T11:49:56.004Z,2.10
2022-12-06T11:52:39.717Z,1.93
2022-12-06T11:55:17.431Z,2.10
2022-12-06T11:57:53.669Z,2.13
2022-12-06T12:00:25.562Z,2.17
2022-12-06T12:02:56.158Z,2.13
2022-12-06T12:05:34.431Z,2.10
2022-12-06T12:08:05.761Z,2.30
2022-12-06T12:10:41.765Z,2.17
2022-12-06T12:13:31.008Z,2.27
2022-12-06T12:16:02.395Z,2.17
2022-12-06T12:18:34.555Z,2.33
2022-12-06T12:21:03.882Z,2.33
2022-12-06T12:23:39.222Z,2.43
2022-12-06T12:26:18.733Z,1.60
2022-12-06T12:29:02.948Z,2.43
2022-12-06T12:31:30.126Z,2.37
2022-12-06T12:34:20.568Z,2.20
2022-12-06T12:37:00.544Z,2.20
2022-12-06T12:39:56.040Z,2.17
2022-12-06T12:42:33.502Z,2.10
2022-12-06T12:45:05.513Z,2.10
2022-12-06T12:47:33.146Z,1.97
2022-12-06T12:50:18.428Z,2.43
2022-12-06T12:52:46.460Z,2.20
2022-12-06T12:55:18.839Z,1.93
2022-12-06T12:57:49.026Z,2.20
2022-12-06T13:00:19.227Z,2.13
2022-12-06T13:02:55.579Z,2.47
2022-12-06T13:05:33.727Z,2.37
2022-12-06T13:08:26.533Z,2.03
2022-12-06T13:10:59.241Z,1.97
2022-12-06T13:13:36.501Z,2.03
2022-12-06T13:16:10.946Z,2.10
2022-12-06T13:18:50.155Z,2.23
2022-12-06T13:21:37.249Z,2.43
2022-12-06T13:24:10.523Z,2.23
2022-12-06T13:26:45.258Z,2.00
2022-12-06T13:29:15.387Z,1.70
2022-12-06T13:31:43.025Z,2.13
2022-12-06T13:34:24.966Z,2.10
2022-12-06T13:36:55.428Z,2.00
2022-12-06T13:39:40.288Z,1.93
2022-12-06T13:42:41.521Z,1.87
2022-12-06T13:45:34.987Z,1.67
2022-12-06T13:48:02.203Z,2.00
2022-12-06T13:50:31.918Z,2.20
2022-12-06T13:53:03.298Z,1.73
2022-12-06T13:55:30.767Z,1.53
2022-12-06T13:58:01.233Z,1.77
2022-12-06T14:00:28.602Z,1.67
2022-12-06T14:03:04.180Z,1.73
2022-12-06T14:06:15.937Z,1.50
2022-12-06T14:08:47.223Z,1.50
2022-12-06T14:11:17.336Z,1.80
2022-12-06T14:13:48.352Z,1.77
2022-12-06T14:16:26.958Z,1.80
2022-12-06T14:18:54.185Z,1.67
2022-12-06T14:21:26.379Z,1.73
2022-12-06T14:23:53.544Z,2.33
2022-12-06T14:26:27.677Z,2.10
2022-12-06T14:28:58.809Z,1.97
2022-12-06T14:31:28.055Z,2.10
2022-12-06T14:33:57.086Z,1.93
2022-12-06T14:36:34.347Z,2.17
2022-12-06T14:39:07.190Z,2.17
2022-12-06T14:41:58.081Z,2.10
2022-12-06T14:44:31.221Z,1.80
2022-12-06T14:46:59.199Z,1.90
2022-12-06T14:49:47.149Z,2.10
2022-12-06T14:52:29.326Z,2.07
2022-12-06T14:55:17.827Z,2.20
2022-12-06T14:57:48.564Z,2.37
2022-12-06T15:00:38.383Z,2.53
2022-12-06T15:03:08.521Z,2.40
2022-12-06T15:05:50.104Z,2.67
2022-12-06T15:08:26.320Z,2.60
2022-12-06T15:11:04.349Z,2.10
2022-12-06T15:13:31.708Z,2.00
2022-12-06T15:16:06.153Z,2.17
2022-12-06T15:18:42.402Z,2.17
2022-12-06T15:21:15.564Z,2.50
2022-12-06T15:23:51.197Z,2.23
2022-12-06T15:26:23.329Z,1.70
2022-12-06T15:28:51.538Z,2.27
2022-12-06T15:31:27.381Z,2.20
2022-12-06T15:33:55.289Z,2.00
2022-12-06T15:36:27.680Z,2.50
2022-12-06T15:38:54.822Z,1.97
2022-12-06T15:41:25.153Z,2.27
2022-12-06T15:43:54.647Z,2.23
2022-12-06T15:46:27.532Z,2.37
2022-12-06T15:48:56.231Z,2.27
2022-12-06T15:51:27.221Z,2.03
2022-12-06T15:53:56.715Z,1.83
2022-12-06T15:56:26.868Z,2.03
2022-12-06T15:58:54.097Z,1.83
2022-12-06T16:01:24.636Z,1.93
2022-12-06T16:03:54.407Z,2.37
2022-12-06T16:06:23.726Z,2.20
2022-12-06T16:08:51.155Z,2.30
2022-12-06T16:11:21.449Z,2.17
2022-12-06T16:13:48.785Z,2.73
2022-12-06T16:16:16.775Z,2.03
2022-12-06T16:18:44.076Z,2.33
2022-12-06T16:21:19.982Z,2.60
2022-12-06T16:24:17.978Z,2.50
2022-12-06T16:26:46.223Z,2.43
2022-12-06T16:29:21.142Z,2.60
2022-12-06T16:31:48.537Z,2.33
2022-12-06T16:34:16.128Z,2.90
2022-12-06T16:36:56.461Z,2.53
2022-12-06T16:39:24.737Z,2.17
2022-12-06T16:41:52.022Z,2.33
2022-12-06T16:44:19.446Z,2.53
2022-12-06T16:46:46.901Z,2.27
2022-12-06T16:49:45.395Z,2.77
2022-12-06T16:52:10.176Z,2.43
2022-12-06T16:54:41.580Z,2.60
2022-12-06T16:57:10.398Z,2.53
2022-12-06T16:59:37.486Z,2.63
2022-12-06T17:02:12.964Z,3.20
2022-12-06T17:04:40.438Z,2.70
2022-12-06T17:07:07.644Z,2.90
2022-12-06T17:09:35.396Z,2.73
2022-12-06T17:12:07.308Z,2.63
2022-12-06T17:14:36.346Z,2.70
2022-12-06T17:17:04.426Z,3.27
2022-12-06T17:19:33.458Z,3.17
2022-12-06T17:22:02.566Z,2.67
2022-12-06T17:24:30.310Z,2.90
2022-12-06T17:26:59.156Z,3.23
2022-12-06T17:29:27.216Z,2.90
2022-12-06T17:31:55.361Z,3.50
2022-12-06T17:34:26.044Z,2.93
2022-12-06T17:36:55.509Z,3.20
2022-12-06T17:39:24.400Z,3.13
2022-12-06T17:42:11.434Z,3.30
2022-12-06T17:44:40.579Z,4.27
2022-12-06T17:47:09.116Z,5.03
2022-12-06T17:49:38.542Z,4.50
2022-12-06T17:52:06.132Z,4.93
2022-12-06T17:54:33.926Z,3.70
2022-12-06T17:57:01.246Z,3.40
2022-12-06T17:59:32.237Z,3.70
2022-12-06T18:02:17.402Z,3.07
2022-12-06T18:04:46.374Z,3.37
2022-12-06T18:07:14.258Z,3.13
2022-12-06T18:09:41.882Z,2.70
2022-12-06T18:12:10.519Z,3.40
2022-12-06T18:14:37.859Z,3.00
2022-12-06T18:17:05.325Z,3.40
2022-12-06T18:19:32.623Z,3.40
2022-12-06T18:21:59.959Z,2.87
2022-12-06T18:24:33.609Z,2.80
2022-12-06T18:27:03.107Z,3.37
2022-12-06T18:29:30.506Z,3.67
2022-12-06T18:31:58.129Z,3.80
2022-12-06T18:34:25.575Z,3.53
2022-12-06T18:36:52.798Z,3.33
2022-12-06T18:39:26.691Z,3.97
2022-12-06T18:41:55.016Z,4.17
2022-12-06T18:44:23.613Z,4.17
2022-12-06T18:46:50.889Z,3.87
2022-12-06T18:49:18.183Z,4.03
2022-12-06T18:51:46.132Z,4.43
2022-12-06T18:54:14.281Z,4.20
2022-12-06T18:56:42.909Z,4.57
2022-12-06T18:59:12.046Z,3.53
2022-12-06T19:01:39.915Z,3.30
2022-12-06T19:04:09.517Z,3.07
2022-12-06T19:06:38.400Z,2.97
2022-12-06T19:09:10.610Z,3.10
2022-12-06T19:11:39.889Z,3.10
2022-12-06T19:14:07.964Z,2.73
2022-12-06T19:16:38.345Z,3.40
2022-12-06T19:19:15.466Z,3.00
2022-12-06T19:21:44.600Z,3.47
2022-12-06T19:24:14.070Z,3.20
2022-12-06T19:26:41.939Z,2.77
2022-12-06T19:29:09.347Z,3.03
2022-12-06T19:31:36.888Z,2.80
2022-12-06T19:34:04.377Z,3.30
2022-12-06T19:36:32.868Z,3.30
2022-12-06T19:39:03.296Z,2.83
2022-12-06T19:41:31.257Z,3.57
2022-12-06T19:44:17.987Z,3.73
2022-12-06T19:46:46.736Z,3.20
2022-12-06T19:49:15.827Z,2.77
2022-12-06T19:51:45.724Z,3.10
2022-12-06T19:54:19.966Z,2.93
2022-12-06T19:56:48.757Z,2.73
2022-12-06T19:59:15.867Z,3.03
2022-12-06T20:01:44.888Z,3.37
2022-12-06T20:04:21.342Z,2.73
2022-12-06T20:06:49.529Z,3.27
2022-12-06T20:09:17.419Z,3.30
2022-12-06T20:12:04.665Z,2.77
2022-12-06T20:14:41.851Z,2.73
2022-12-06T20:17:26.780Z,3.57
2022-12-06T20:19:54.158Z,2.70
2022-12-06T20:22:22.907Z,2.73
2022-12-06T20:24:50.550Z,2.83
2022-12-06T20:27:17.784Z,2.77
2022-12-06T20:29:45.117Z,2.90
2022-12-06T20:32:12.480Z,2.47
2022-12-06T20:34:39.721Z,2.83
2022-12-06T20:37:07.268Z,2.97
2022-12-06T20:39:38.614Z,2.57
2022-12-06T20:42:07.250Z,3.40
2022-12-06T20:44:34.979Z,3.03
2022-12-06T20:47:02.520Z,3.23
2022-12-06T20:49:30.035Z,2.93
2022-12-06T20:52:02.363Z,3.17
2022-12-06T20:54:29.926Z,2.37
2022-12-06T20:56:57.172Z,2.73
2022-12-06T20:59:24.427Z,2.70
2022-12-06T21:01:51.834Z,3.03
2022-12-06T21:04:19.226Z,3.13
2022-12-06T21:06:46.514Z,3.03
2022-12-06T21:09:13.742Z,3.53
2022-12-06T21:11:41.142Z,3.10
2022-12-06T21:14:11.028Z,2.90
2022-12-06T21:16:40.205Z,3.57
2022-12-06T21:19:12.292Z,3.30
2022-12-06T21:21:41.178Z,3.50
2022-12-06T21:24:11.795Z,2.97
2022-12-06T21:26:39.073Z,3.07
2022-12-06T21:29:06.310Z,3.53
2022-12-06T21:31:36.654Z,3.20
2022-12-06T21:34:04.419Z,2.73
2022-12-06T21:36:32.187Z,3.43
2022-12-06T21:38:59.910Z,3.40
2022-12-06T21:41:27.817Z,2.97
2022-12-06T21:43:55.659Z,3.23
2022-12-06T21:46:25.708Z,2.77
2022-12-06T21:49:00.683Z,3.17
2022-12-06T21:51:30.843Z,3.60
2022-12-06T21:53:59.075Z,2.83
2022-12-06T21:56:29.306Z,2.90
2022-12-06T21:58:57.308Z,2.87
2022-12-06T22:01:28.692Z,2.97
2022-12-06T22:04:00.583Z,2.87
2022-12-06T22:06:28.031Z,2.83
2022-12-06T22:09:06.318Z,2.83
2022-12-06T22:11:34.854Z,3.20
2022-12-06T22:14:04.976Z,2.80
2022-12-06T22:16:32.397Z,2.70
2022-12-06T22:18:59.696Z,3.10
2022-12-06T22:21:29.406Z,3.33
2022-12-06T22:24:00.032Z,2.77
2022-12-06T22:26:30.430Z,2.53
2022-12-06T22:29:01.310Z,2.80
2022-12-06T22:31:31.534Z,2.67
2022-12-06T22:33:59.782Z,2.83
2022-12-06T22:36:29.815Z,2.53
2022-12-06T22:38:59.914Z,2.83
2022-12-06T22:41:28.965Z,3.03
2022-12-06T22:43:59.157Z,3.37
2022-12-06T22:46:27.740Z,3.30
2022-12-06T22:48:59.143Z,3.07
2022-12-06T22:51:27.272Z,2.77
2022-12-06T22:53:56.513Z,2.87
2022-12-06T22:56:27.537Z,2.80
2022-12-06T22:58:56.681Z,2.97
2022-12-06T23:01:26.658Z,2.63
2022-12-06T23:03:54.624Z,3.17
2022-12-06T23:06:27.553Z,3.13
2022-12-06T23:08:56.069Z,2.80
2022-12-06T23:11:27.067Z,3.03
2022-12-06T23:13:55.837Z,3.50
2022-12-06T23:16:26.362Z,3.30
2022-12-06T23:18:54.335Z,3.37
2022-12-06T23:21:24.737Z,3.03
2022-12-06T23:24:00.340Z,2.97
2022-12-06T23:26:33.526Z,3.17
2022-12-06T23:29:00.791Z,3.23
2022-12-06T23:31:30.226Z,3.37
2022-12-06T23:34:11.574Z,4.23
2022-12-06T23:36:38.758Z,4.03
2022-12-06T23:39:06.562Z,4.17
2022-12-06T23:41:35.260Z,4.17
2022-12-06T23:44:03.064Z,4.03
2022-12-06T23:46:33.247Z,3.83
2022-12-06T23:49:00.980Z,3.67
2022-12-06T23:51:31.519Z,3.77
2022-12-06T23:54:00.137Z,3.57
2022-12-06T23:56:30.999Z,3.33
2022-12-06T23:58:59.734Z,3.67
